createdAt,value
2019-03-03T00:01:56.953Z,6.80
2019-03-03T00:04:29.187Z,6.70
2019-03-03T00:07:01.319Z,6.80
2019-03-03T00:09:33.430Z,6.90
2019-03-03T00:12:05.725Z,6.70
2019-03-03T00:14:37.947Z,6.70
2019-03-03T00:17:10.315Z,6.70
2019-03-03T00:19:42.780Z,6.70
2019-03-03T00:22:15.295Z,6.70
2019-03-03T00:24:47.768Z,6.70
2019-03-03T00:27:20.083Z,6.80
2019-03-03T00:29:52.582Z,6.80
2019-03-03T00:32:24.760Z,6.70
2019-03-03T00:34:56.879Z,6.80
2019-03-03T00:37:42.270Z,6.80
2019-03-03T00:40:33.177Z,6.80
2019-03-03T00:43:23.685Z,6.70
2019-03-03T00:46:05.681Z,6.60
2019-03-03T00:48:45.549Z,6.60
2019-03-03T00:51:33.026Z,6.60
2019-03-03T00:54:19.338Z,6.60
2019-03-03T00:57:00.884Z,6.70
2019-03-03T00:59:55.465Z,6.50
2019-03-03T01:02:47.574Z,6.60
2019-03-03T01:05:33.515Z,6.70
2019-03-03T01:08:28.329Z,6.70
2019-03-03T01:11:16.180Z,6.70
2019-03-03T01:14:06.680Z,6.80
2019-03-03T01:16:46.273Z,6.70
2019-03-03T01:19:43.925Z,6.80
2019-03-03T01:22:41.889Z,6.90
2019-03-03T01:25:14.100Z,6.90
2019-03-03T01:27:46.612Z,6.80
2019-03-03T01:30:19.201Z,6.70
2019-03-03T01:32:51.488Z,6.70
2019-03-03T01:35:24.001Z,6.60
2019-03-03T01:37:56.240Z,6.60
2019-03-03T01:40:28.900Z,6.50
2019-03-03T01:43:01.077Z,6.50
2019-03-03T01:45:33.280Z,6.60
2019-03-03T01:48:05.686Z,6.50
2019-03-03T01:50:37.921Z,6.60
2019-03-03T01:53:10.145Z,6.60
2019-03-03T01:55:42.391Z,6.60
2019-03-03T01:58:14.820Z,6.70
2019-03-03T02:00:47.204Z,6.60
2019-03-03T02:03:19.757Z,6.60
2019-03-03T02:05:52.328Z,6.60
2019-03-03T02:08:24.414Z,6.50
2019-03-03T02:10:56.733Z,6.60
2019-03-03T02:13:29.016Z,6.60
2019-03-03T02:16:02.385Z,6.60
2019-03-03T02:18:34.580Z,6.70
2019-03-03T02:21:07.008Z,6.60
2019-03-03T02:23:39.242Z,6.70
2019-03-03T02:26:11.790Z,6.90
2019-03-03T02:28:43.993Z,7.00
2019-03-03T02:31:16.234Z,6.90
2019-03-03T02:33:48.617Z,6.80
2019-03-03T02:36:21.086Z,6.90
2019-03-03T02:38:53.691Z,6.90
2019-03-03T02:41:25.938Z,6.90
2019-03-03T02:43:58.276Z,6.80
2019-03-03T02:46:30.513Z,6.80
2019-03-03T02:49:02.715Z,6.80
2019-03-03T02:51:34.935Z,6.80
2019-03-03T02:54:07.559Z,6.80
2019-03-03T02:56:39.741Z,6.90
2019-03-03T02:59:11.977Z,6.90
2019-03-03T03:01:52.333Z,6.90
2019-03-03T03:07:23.429Z,7.00
2019-03-03T03:10:21.075Z,7.00
2019-03-03T03:13:15.624Z,7.00
2019-03-03T03:15:59.081Z,7.00
2019-03-03T03:18:39.922Z,7.10
2019-03-03T03:21:28.238Z,7.10
2019-03-03T03:24:10.316Z,7.00
2019-03-03T03:26:52.321Z,7.10
2019-03-03T03:29:39.795Z,7.00
2019-03-03T03:32:23.780Z,7.00
2019-03-03T03:35:06.990Z,7.10
2019-03-03T03:37:51.873Z,7.10
2019-03-03T03:40:32.273Z,7.10
2019-03-03T03:43:30.622Z,7.10
2019-03-03T03:46:28.368Z,7.10
2019-03-03T03:49:18.876Z,7.20
2019-03-03T03:52:03.144Z,7.20
2019-03-03T03:54:43.481Z,7.30
2019-03-03T03:57:28.658Z,7.40
2019-03-03T04:00:20.931Z,7.40
2019-03-03T04:03:03.199Z,7.30
2019-03-03T04:06:00.851Z,7.40
2019-03-03T04:08:51.163Z,7.40
2019-03-03T04:11:42.979Z,7.40
2019-03-03T04:14:34.822Z,7.50
2019-03-03T04:17:30.033Z,7.40
2019-03-03T04:20:20.432Z,7.40
2019-03-03T04:23:24.323Z,7.40
2019-03-03T04:26:08.266Z,7.40
2019-03-03T04:28:56.415Z,7.40
2019-03-03T04:31:34.686Z,7.40
2019-03-03T04:34:17.470Z,7.50
2019-03-03T04:37:09.475Z,7.60
2019-03-03T04:39:57.512Z,7.70
2019-03-03T04:42:48.164Z,7.70
2019-03-03T04:45:34.066Z,7.70
2019-03-03T04:48:21.332Z,7.60
2019-03-03T04:51:12.766Z,7.70
2019-03-03T04:54:10.722Z,7.70
2019-03-03T04:56:55.123Z,7.70
2019-03-03T04:59:49.886Z,7.70
2019-03-03T05:02:29.836Z,7.80
2019-03-03T05:05:12.848Z,7.80
2019-03-03T05:08:07.399Z,7.80
2019-03-03T05:10:51.048Z,7.80
2019-03-03T05:13:27.444Z,7.90
2019-03-03T05:16:18.017Z,7.90
2019-03-03T05:19:05.693Z,8.00
2019-03-03T05:21:38.085Z,8.00
2019-03-03T05:24:10.283Z,8.00
2019-03-03T05:26:42.523Z,8.00
2019-03-03T05:29:14.644Z,8.10
2019-03-03T05:31:47.432Z,8.10
2019-03-03T05:34:19.610Z,8.20
2019-03-03T05:36:51.835Z,8.20
2019-03-03T05:39:24.131Z,8.10
2019-03-03T05:41:56.241Z,8.10
2019-03-03T05:44:28.604Z,8.30
2019-03-03T05:47:01.068Z,8.30
2019-03-03T05:49:33.141Z,8.20
2019-03-03T05:52:05.554Z,8.20
2019-03-03T05:54:38.340Z,8.20
2019-03-03T05:57:11.021Z,8.20
2019-03-03T05:59:43.814Z,8.30
2019-03-03T06:02:16.181Z,8.30
2019-03-03T06:04:48.438Z,8.30
2019-03-03T06:07:21.048Z,8.30
2019-03-03T06:09:53.316Z,8.30
2019-03-03T06:12:25.745Z,8.30
2019-03-03T06:14:58.355Z,8.40
2019-03-03T06:17:30.536Z,8.40
2019-03-03T06:20:03.192Z,8.30
2019-03-03T06:22:35.285Z,8.40
2019-03-03T06:25:08.026Z,8.30
2019-03-03T06:27:40.233Z,8.40
2019-03-03T06:30:13.297Z,7.80
2019-03-03T06:32:45.382Z,8.50
2019-03-03T06:35:17.776Z,8.50
2019-03-03T06:37:50.195Z,8.50
2019-03-03T06:40:22.696Z,8.50
2019-03-03T06:42:54.774Z,8.60
2019-03-03T06:45:27.321Z,8.60
2019-03-03T06:47:59.412Z,8.70
2019-03-03T06:50:31.921Z,8.70
2019-03-03T06:53:04.012Z,8.80
2019-03-03T06:55:36.129Z,8.80
2019-03-03T06:58:08.622Z,8.90
2019-03-03T07:00:41.026Z,8.90
2019-03-03T07:03:13.161Z,8.90
2019-03-03T07:05:45.671Z,8.90
2019-03-03T07:08:17.910Z,9.00
2019-03-03T07:10:50.040Z,9.10
2019-03-03T07:13:22.681Z,9.10
2019-03-03T07:15:54.845Z,9.20
2019-03-03T07:18:27.078Z,9.20
2019-03-03T07:20:59.290Z,9.20
2019-03-03T07:23:31.458Z,9.30
2019-03-03T07:26:04.034Z,9.30
2019-03-03T07:28:36.295Z,9.40
2019-03-03T07:31:08.782Z,9.40
2019-03-03T07:33:44.472Z,9.40
2019-03-03T07:36:16.745Z,9.50
2019-03-03T07:38:49.381Z,9.50
2019-03-03T07:41:21.665Z,9.60
2019-03-03T07:43:53.940Z,9.60
2019-03-03T07:46:26.205Z,9.60
2019-03-03T07:48:58.567Z,9.70
2019-03-03T07:51:30.956Z,9.70
2019-03-03T07:54:03.208Z,9.80
2019-03-03T07:56:35.409Z,9.80
2019-03-03T07:59:08.041Z,9.80
2019-03-03T08:01:40.924Z,9.90
2019-03-03T08:04:13.153Z,9.90
2019-03-03T08:06:45.380Z,10.00
2019-03-03T08:09:17.809Z,10.00
2019-03-03T08:11:50.028Z,10.00
2019-03-03T08:14:22.637Z,10.00
2019-03-03T08:16:54.749Z,10.10
2019-03-03T08:19:28.436Z,10.10
2019-03-03T08:22:00.690Z,10.20
2019-03-03T08:24:33.308Z,10.20
2019-03-03T08:27:05.578Z,10.20
2019-03-03T08:29:37.958Z,10.30
2019-03-03T08:32:10.324Z,10.40
2019-03-03T08:34:42.477Z,10.40
2019-03-03T08:37:14.737Z,10.40
2019-03-03T08:39:46.927Z,10.40
2019-03-03T08:42:42.856Z,10.50
2019-03-03T08:45:24.204Z,10.50
2019-03-03T08:48:16.070Z,10.50
2019-03-03T08:50:53.101Z,10.50
2019-03-03T08:53:33.636Z,10.60
2019-03-03T08:56:22.176Z,10.60
2019-03-03T08:59:22.867Z,10.70
2019-03-03T09:02:15.568Z,10.70
2019-03-03T09:05:10.328Z,10.70
2019-03-03T09:07:50.158Z,10.70
2019-03-03T09:10:31.159Z,10.70
2019-03-03T09:13:08.745Z,10.70
2019-03-03T09:15:59.513Z,10.70
2019-03-03T09:18:49.739Z,10.70
2019-03-03T09:21:40.285Z,10.70
2019-03-03T09:24:32.942Z,10.70
2019-03-03T09:27:23.125Z,10.70
2019-03-03T09:30:17.660Z,10.70
2019-03-03T09:33:17.019Z,10.80
2019-03-03T09:35:57.050Z,10.80
2019-03-03T09:38:43.192Z,10.90
2019-03-03T09:41:41.148Z,11.00
2019-03-03T09:44:31.717Z,11.00
2019-03-03T09:47:22.262Z,11.00
2019-03-03T09:50:23.215Z,11.10
2019-03-03T09:53:15.079Z,11.10
2019-03-03T09:56:15.959Z,11.20
2019-03-03T09:59:13.595Z,11.20
2019-03-03T10:02:04.015Z,11.20
2019-03-03T10:04:58.034Z,11.20
2019-03-03T10:07:46.989Z,11.20
2019-03-03T10:10:27.290Z,11.20
2019-03-03T10:13:05.716Z,11.30
2019-03-03T10:15:46.953Z,11.30
2019-03-03T10:18:47.848Z,11.30
2019-03-03T10:21:40.101Z,11.30
2019-03-03T10:24:19.040Z,11.20
2019-03-03T10:27:09.653Z,11.10
2019-03-03T10:30:04.245Z,11.10
2019-03-03T10:33:02.060Z,11.10
2019-03-03T10:35:56.613Z,11.10
2019-03-03T10:38:36.445Z,11.10
2019-03-03T10:41:29.811Z,11.00
2019-03-03T10:44:20.103Z,10.90
2019-03-03T10:47:14.876Z,10.90
2019-03-03T10:50:24.977Z,10.90
2019-03-03T10:53:04.233Z,11.00
2019-03-03T10:55:59.114Z,10.90
2019-03-03T10:58:51.331Z,11.00
2019-03-03T11:01:33.341Z,11.00
2019-03-03T11:04:25.300Z,11.00
2019-03-03T11:07:21.058Z,11.10
2019-03-03T11:10:18.926Z,11.10
2019-03-03T11:13:02.556Z,11.10
2019-03-03T11:15:53.357Z,11.20
2019-03-03T11:18:45.321Z,11.20
2019-03-03T11:21:27.589Z,11.10
2019-03-03T11:24:34.677Z,11.20
2019-03-03T11:27:42.551Z,11.20
2019-03-03T11:30:47.042Z,11.20
2019-03-03T11:33:45.834Z,11.30
2019-03-03T11:36:36.913Z,11.30
2019-03-03T11:39:26.558Z,11.40
2019-03-03T11:42:15.985Z,11.40
2019-03-03T11:45:08.223Z,11.40
2019-03-03T11:48:04.130Z,11.50
2019-03-03T11:51:01.117Z,11.50
2019-03-03T11:54:02.235Z,11.40
2019-03-03T11:57:06.880Z,11.40
2019-03-03T12:00:02.098Z,11.30
2019-03-03T12:03:09.997Z,11.30
2019-03-03T12:06:08.253Z,11.20
2019-03-03T12:09:12.789Z,11.10
2019-03-03T12:12:24.305Z,11.10
2019-03-03T12:15:13.717Z,11.00
2019-03-03T12:18:05.589Z,10.90
2019-03-03T12:20:57.681Z,11.00
2019-03-03T12:24:05.560Z,10.90
2019-03-03T12:27:12.896Z,10.90
2019-03-03T12:30:01.617Z,10.90
2019-03-03T12:33:13.264Z,11.00
2019-03-03T12:36:17.976Z,11.00
2019-03-03T12:38:59.869Z,11.00
2019-03-03T12:41:52.307Z,11.00
2019-03-03T12:44:35.634Z,11.10
2019-03-03T12:50:34.427Z,11.10
2019-03-03T12:53:26.420Z,11.20
2019-03-03T12:56:31.299Z,11.20
2019-03-03T12:59:36.227Z,11.20
2019-03-03T13:02:47.224Z,11.30
2019-03-03T13:05:51.527Z,11.30
2019-03-03T13:08:59.567Z,11.30
2019-03-03T13:12:02.809Z,11.20
2019-03-03T13:15:07.812Z,11.20
2019-03-03T13:21:13.472Z,11.10
2019-03-03T13:24:05.574Z,11.10
2019-03-03T13:27:04.787Z,11.10
2019-03-03T13:30:05.250Z,11.20
2019-03-03T13:32:57.417Z,11.20
2019-03-03T13:36:07.916Z,11.20
2019-03-03T13:39:12.943Z,11.20
2019-03-03T13:42:05.587Z,11.30
2019-03-03T13:44:38.206Z,11.30
2019-03-03T13:50:15.726Z,11.30
2019-03-03T13:53:00.400Z,11.40
2019-03-03T13:58:38.914Z,11.40
2019-03-03T14:01:11.386Z,11.60
2019-03-03T14:03:43.692Z,11.60
2019-03-03T14:06:29.381Z,11.70
2019-03-03T14:09:01.990Z,11.70
2019-03-03T14:11:47.324Z,11.70
2019-03-03T14:14:32.169Z,11.70
2019-03-03T14:17:17.714Z,11.80
2019-03-03T14:20:02.536Z,11.80
2019-03-03T14:22:35.571Z,11.80
2019-03-03T14:25:27.415Z,11.80
2019-03-03T14:28:13.450Z,11.80
2019-03-03T14:30:57.655Z,11.80
2019-03-03T14:33:59.604Z,11.70
2019-03-03T14:36:44.739Z,11.60
2019-03-03T14:39:29.794Z,11.50
2019-03-03T14:42:14.957Z,11.50
2019-03-03T14:44:47.338Z,11.30
2019-03-03T14:47:19.813Z,11.20
2019-03-03T14:53:22.568Z,11.10
2019-03-03T14:56:07.421Z,11.10
2019-03-03T15:01:38.305Z,11.10
2019-03-03T15:04:10.897Z,11.00
2019-03-03T15:06:56.102Z,10.90
2019-03-03T15:09:41.294Z,10.80
2019-03-03T15:12:26.181Z,10.70
2019-03-03T15:14:59.174Z,10.60
2019-03-03T15:17:31.674Z,10.50
2019-03-03T15:20:24.033Z,10.40
2019-03-03T15:23:09.053Z,10.40
2019-03-03T15:25:54.018Z,10.50
2019-03-03T15:28:38.892Z,10.40
2019-03-03T15:31:24.232Z,10.40
2019-03-03T15:34:09.861Z,10.30
2019-03-03T15:36:55.034Z,10.30
2019-03-03T15:39:40.171Z,10.20
2019-03-03T15:42:12.658Z,10.20
2019-03-03T15:45:05.038Z,10.20
2019-03-03T15:47:50.647Z,10.20
2019-03-03T15:50:35.516Z,10.20
2019-03-03T15:53:20.743Z,10.20
2019-03-03T15:56:05.685Z,10.20
2019-03-03T15:58:55.565Z,10.20
2019-03-03T16:01:37.898Z,10.20
2019-03-03T16:04:23.735Z,10.30
2019-03-03T16:07:08.479Z,10.20
2019-03-03T16:09:40.716Z,10.30
2019-03-03T16:12:25.417Z,10.20
2019-03-03T16:15:10.625Z,10.20
2019-03-03T16:17:56.171Z,10.20
2019-03-03T16:20:40.770Z,10.10
2019-03-03T16:23:25.563Z,10.10
2019-03-03T16:26:10.562Z,10.10
2019-03-03T16:28:55.757Z,10.20
2019-03-03T16:31:40.567Z,10.10
2019-03-03T16:34:26.061Z,10.10
2019-03-03T16:37:10.985Z,10.20
2019-03-03T16:39:56.524Z,10.10
2019-03-03T16:42:28.629Z,10.20
2019-03-03T16:45:13.179Z,10.10
2019-03-03T16:47:58.318Z,10.20
2019-03-03T16:50:43.286Z,10.10
2019-03-03T16:53:15.600Z,10.10
2019-03-03T16:55:47.935Z,10.10
2019-03-03T16:58:20.315Z,10.20
2019-03-03T17:01:05.047Z,10.20
2019-03-03T17:03:49.987Z,10.20
2019-03-03T17:06:35.078Z,10.20
2019-03-03T17:09:20.301Z,10.20
2019-03-03T17:12:05.579Z,10.20
2019-03-03T17:14:50.247Z,10.20
2019-03-03T17:17:35.382Z,10.20
2019-03-03T17:20:08.206Z,10.10
2019-03-03T17:23:00.314Z,10.20
2019-03-03T17:25:32.673Z,10.20
2019-03-03T17:28:24.561Z,10.20
2019-03-03T17:30:57.100Z,10.10
2019-03-03T17:33:42.164Z,10.10
2019-03-03T17:36:27.233Z,10.10
2019-03-03T17:39:12.393Z,10.10
2019-03-03T17:41:44.887Z,10.20
2019-03-03T17:44:17.237Z,10.20
2019-03-03T17:47:02.913Z,10.20
2019-03-03T17:49:47.780Z,10.20
2019-03-03T17:52:20.093Z,10.20
2019-03-03T17:54:52.558Z,10.20
2019-03-03T17:57:25.329Z,10.20
2019-03-03T18:00:18.274Z,10.20
2019-03-03T18:03:03.737Z,10.20
2019-03-03T18:05:49.741Z,10.20
2019-03-03T18:08:34.621Z,10.30
2019-03-03T18:11:19.385Z,10.20
2019-03-03T18:14:04.632Z,10.20
2019-03-03T18:16:49.707Z,10.20
2019-03-03T18:19:34.829Z,10.20
2019-03-03T18:22:19.849Z,10.30
2019-03-03T18:25:05.146Z,10.30
2019-03-03T18:27:50.544Z,10.20
2019-03-03T18:30:36.185Z,10.20
2019-03-03T18:33:21.002Z,10.20
2019-03-03T18:35:53.258Z,10.20
2019-03-03T18:38:38.797Z,10.30
2019-03-03T18:41:23.465Z,10.30
2019-03-03T18:43:55.837Z,10.40
2019-03-03T18:46:47.845Z,10.30
2019-03-03T18:49:32.781Z,10.40
2019-03-03T18:52:18.058Z,10.40
2019-03-03T18:55:02.995Z,10.40
2019-03-03T18:57:35.957Z,10.30
2019-03-03T19:00:28.145Z,10.30
2019-03-03T19:03:13.362Z,10.40
2019-03-03T19:05:58.247Z,10.40
2019-03-03T19:08:43.367Z,10.40
2019-03-03T19:11:28.755Z,10.40
2019-03-03T19:14:13.438Z,10.50
2019-03-03T19:16:58.689Z,10.40
2019-03-03T19:19:44.816Z,10.50
2019-03-03T19:22:29.934Z,10.50
2019-03-03T19:25:15.176Z,10.50
2019-03-03T19:28:00.311Z,10.50
2019-03-03T19:30:45.306Z,10.50
2019-03-03T19:33:56.733Z,10.50
2019-03-03T19:36:41.337Z,10.60
2019-03-03T19:39:13.756Z,10.60
2019-03-03T19:42:05.591Z,10.60
2019-03-03T19:44:50.458Z,10.60
2019-03-03T19:47:35.310Z,10.50
2019-03-03T19:50:09.248Z,10.50
2019-03-03T19:52:42.136Z,10.60
2019-03-03T19:55:34.106Z,10.60
2019-03-03T19:58:26.007Z,10.60
2019-03-03T20:01:11.064Z,10.60
2019-03-03T20:03:56.017Z,10.50
2019-03-03T20:06:41.087Z,10.60
2019-03-03T20:09:26.334Z,10.60
2019-03-03T20:12:11.311Z,10.60
2019-03-03T20:14:56.082Z,10.70
2019-03-03T20:17:28.348Z,10.70
2019-03-03T20:20:20.158Z,10.70
2019-03-03T20:25:44.807Z,10.70
2019-03-03T20:28:29.722Z,10.70
2019-03-03T20:33:58.813Z,10.70
2019-03-03T20:36:43.910Z,10.70
2019-03-03T20:39:16.824Z,10.70
2019-03-03T20:42:02.088Z,10.70
2019-03-03T20:47:30.997Z,10.70
2019-03-03T20:50:16.479Z,10.80
2019-03-03T20:56:15.541Z,10.80
2019-03-03T20:58:47.955Z,10.80
2019-03-03T21:01:40.030Z,10.80
2019-03-03T21:04:24.547Z,10.80
2019-03-03T21:07:09.909Z,10.90
2019-03-03T21:09:54.878Z,10.90
2019-03-03T21:12:39.747Z,10.90
2019-03-03T21:15:24.786Z,10.90
2019-03-03T21:18:09.933Z,10.90
2019-03-03T21:20:55.078Z,10.90
2019-03-03T21:23:40.074Z,10.90
2019-03-03T21:26:25.207Z,10.90
2019-03-03T21:29:10.343Z,10.90
2019-03-03T21:31:55.866Z,10.90
2019-03-03T21:34:40.655Z,11.00
2019-03-03T21:37:25.627Z,10.90
2019-03-03T21:40:10.774Z,11.00
2019-03-03T21:42:56.001Z,11.00
2019-03-03T21:45:40.710Z,11.00
2019-03-03T21:48:25.804Z,11.00
2019-03-03T21:50:58.086Z,11.00
2019-03-03T21:53:42.988Z,10.90
2019-03-03T21:56:28.093Z,11.00
2019-03-03T21:59:13.182Z,11.00
2019-03-03T22:01:45.448Z,11.00
2019-03-03T22:04:37.255Z,10.90
2019-03-03T22:07:09.391Z,10.90
2019-03-03T22:10:01.377Z,11.00
2019-03-03T22:12:45.778Z,10.90
2019-03-03T22:15:30.350Z,10.90
2019-03-03T22:18:03.092Z,10.80
2019-03-03T22:20:48.418Z,10.80
2019-03-03T22:23:20.570Z,10.80
2019-03-03T22:25:52.976Z,10.70
2019-03-03T22:28:25.142Z,10.70
2019-03-03T22:31:16.922Z,10.70
2019-03-03T22:34:02.196Z,10.70
2019-03-03T22:36:47.049Z,10.70
2019-03-03T22:39:32.233Z,10.60
2019-03-03T22:42:17.453Z,10.60
2019-03-03T22:44:50.013Z,10.50
2019-03-03T22:47:22.314Z,10.70
2019-03-03T22:50:07.119Z,10.60
2019-03-03T22:52:41.918Z,10.50
2019-03-03T22:55:26.555Z,10.60
2019-03-03T22:57:58.701Z,10.50
2019-03-03T23:00:53.033Z,10.50
2019-03-03T23:03:50.407Z,10.60
2019-03-03T23:06:27.105Z,10.50
2019-03-03T23:09:12.432Z,10.50
2019-03-03T23:11:57.401Z,10.50
2019-03-03T23:14:42.445Z,10.50
2019-03-03T23:17:27.846Z,10.60
2019-03-03T23:20:13.024Z,10.60
2019-03-03T23:22:57.910Z,10.60
2019-03-03T23:25:42.741Z,10.60
2019-03-03T23:28:27.850Z,10.60
2019-03-03T23:31:12.964Z,10.60
2019-03-03T23:33:58.036Z,10.60
2019-03-03T23:36:43.569Z,10.60
2019-03-03T23:39:29.329Z,10.60
2019-03-03T23:42:14.117Z,10.60
2019-03-03T23:44:46.378Z,10.60
2019-03-03T23:47:38.335Z,10.60
2019-03-03T23:50:23.086Z,10.60
2019-03-03T23:52:55.683Z,10.70
2019-03-03T23:55:41.035Z,10.70
2019-03-03T23:58:13.392Z,10.70
